sensor_id;sensor_type;location;lat;lon;timestamp;P1;durP1;ratioP1;P2;durP2;ratioP2
18838;SDS011;9548;56.920;14.804;2023-05-02T00:02:02;7.00;;;2.50;;
18838;SDS011;9548;56.920;14.804;2023-05-02T00:04:29;6.50;;;2.17;;
18838;SDS011;9548;56.920;14.804;2023-05-02T00:06:56;2.53;;;2.05;;
18838;SDS011;9548;56.920;14.804;2023-05-02T00:09:23;5.22;;;2.50;;
18838;SDS011;9548;56.920;14.804;2023-05-02T00:11:50;2.63;;;2.22;;
18838;SDS011;9548;56.920;14.804;2023-05-02T00:14:19;4.60;;;2.47;;
18838;SDS011;9548;56.920;14.804;2023-05-02T00:16:45;2.97;;;2.08;;
18838;SDS011;9548;56.920;14.804;2023-05-02T00:19:12;3.92;;;2.17;;
18838;SDS011;9548;56.920;14.804;2023-05-02T00:21:39;4.53;;;2.35;;
18838;SDS011;9548;56.920;14.804;2023-05-02T00:24:06;5.40;;;2.33;;
18838;SDS011;9548;56.920;14.804;2023-05-02T00:26:33;4.50;;;2.17;;
18838;SDS011;9548;56.920;14.804;2023-05-02T00:29:00;5.93;;;2.70;;
18838;SDS011;9548;56.920;14.804;2023-05-02T00:31:28;3.67;;;2.38;;
18838;SDS011;9548;56.920;14.804;2023-05-02T00:33:55;5.40;;;2.47;;
18838;SDS011;9548;56.920;14.804;2023-05-02T00:36:22;3.63;;;2.28;;
18838;SDS011;9548;56.920;14.804;2023-05-02T00:38:49;3.50;;;2.60;;
18838;SDS011;9548;56.920;14.804;2023-05-02T00:41:16;4.85;;;3.05;;
18838;SDS011;9548;56.920;14.804;2023-05-02T00:43:43;5.57;;;2.85;;
18838;SDS011;9548;56.920;14.804;2023-05-02T00:46:10;4.93;;;3.10;;
18838;SDS011;9548;56.920;14.804;2023-05-02T00:48:38;5.60;;;3.03;;
18838;SDS011;9548;56.920;14.804;2023-05-02T00:51:05;4.97;;;2.67;;
18838;SDS011;9548;56.920;14.804;2023-05-02T00:53:33;6.20;;;2.88;;
18838;SDS011;9548;56.920;14.804;2023-05-02T00:56:01;5.80;;;3.33;;
18838;SDS011;9548;56.920;14.804;2023-05-02T00:58:28;4.25;;;2.95;;
18838;SDS011;9548;56.920;14.804;2023-05-02T01:01:02;6.68;;;3.25;;
18838;SDS011;9548;56.920;14.804;2023-05-02T01:03:40;5.47;;;3.08;;
18838;SDS011;9548;56.920;14.804;2023-05-02T01:06:23;4.55;;;3.05;;
18838;SDS011;9548;56.920;14.804;2023-05-02T01:08:59;5.68;;;3.20;;
18838;SDS011;9548;56.920;14.804;2023-05-02T01:11:37;4.15;;;2.85;;
18838;SDS011;9548;56.920;14.804;2023-05-02T01:14:09;4.50;;;2.70;;
18838;SDS011;9548;56.920;14.804;2023-05-02T01:16:37;7.55;;;3.55;;
18838;SDS011;9548;56.920;14.804;2023-05-02T01:19:08;5.75;;;3.47;;
18838;SDS011;9548;56.920;14.804;2023-05-02T01:21:45;4.30;;;3.03;;
18838;SDS011;9548;56.920;14.804;2023-05-02T01:24:15;5.95;;;2.78;;
18838;SDS011;9548;56.920;14.804;2023-05-02T01:26:50;5.63;;;2.72;;
18838;SDS011;9548;56.920;14.804;2023-05-02T01:29:26;6.25;;;3.22;;
18838;SDS011;9548;56.920;14.804;2023-05-02T01:31:55;5.80;;;3.20;;
18838;SDS011;9548;56.920;14.804;2023-05-02T01:34:23;4.20;;;2.63;;
18838;SDS011;9548;56.920;14.804;2023-05-02T01:36:52;4.85;;;2.92;;
18838;SDS011;9548;56.920;14.804;2023-05-02T01:39:23;4.63;;;2.60;;
18838;SDS011;9548;56.920;14.804;2023-05-02T01:41:51;3.78;;;2.55;;
18838;SDS011;9548;56.920;14.804;2023-05-02T01:44:21;3.88;;;2.42;;
18838;SDS011;9548;56.920;14.804;2023-05-02T01:46:50;5.05;;;2.38;;
18838;SDS011;9548;56.920;14.804;2023-05-02T01:49:20;3.10;;;2.17;;
18838;SDS011;9548;56.920;14.804;2023-05-02T01:51:49;4.72;;;2.13;;
18838;SDS011;9548;56.920;14.804;2023-05-02T01:54:17;2.58;;;1.77;;
18838;SDS011;9548;56.920;14.804;2023-05-02T01:56:48;3.03;;;1.58;;
18838;SDS011;9548;56.920;14.804;2023-05-02T01:59:17;2.40;;;1.55;;
18838;SDS011;9548;56.920;14.804;2023-05-02T02:01:47;5.55;;;1.90;;
18838;SDS011;9548;56.920;14.804;2023-05-02T02:04:18;2.30;;;1.40;;
18838;SDS011;9548;56.920;14.804;2023-05-02T02:06:48;2.75;;;1.58;;
18838;SDS011;9548;56.920;14.804;2023-05-02T02:09:20;2.65;;;1.75;;
18838;SDS011;9548;56.920;14.804;2023-05-02T02:11:50;3.20;;;1.48;;
18838;SDS011;9548;56.920;14.804;2023-05-02T02:14:24;6.18;;;1.75;;
18838;SDS011;9548;56.920;14.804;2023-05-02T02:16:54;2.33;;;1.38;;
18838;SDS011;9548;56.920;14.804;2023-05-02T02:19:26;1.75;;;1.20;;
18838;SDS011;9548;56.920;14.804;2023-05-02T02:21:55;2.05;;;1.13;;
18838;SDS011;9548;56.920;14.804;2023-05-02T02:24:24;3.00;;;1.40;;
18838;SDS011;9548;56.920;14.804;2023-05-02T02:26:51;2.03;;;1.48;;
18838;SDS011;9548;56.920;14.804;2023-05-02T02:29:18;3.13;;;1.60;;
18838;SDS011;9548;56.920;14.804;2023-05-02T02:31:45;2.50;;;1.27;;
18838;SDS011;9548;56.920;14.804;2023-05-02T02:34:13;2.05;;;1.25;;
18838;SDS011;9548;56.920;14.804;2023-05-02T02:36:43;3.47;;;1.30;;
18838;SDS011;9548;56.920;14.804;2023-05-02T02:39:15;2.20;;;1.33;;
18838;SDS011;9548;56.920;14.804;2023-05-02T02:41:51;2.97;;;1.65;;
18838;SDS011;9548;56.920;14.804;2023-05-02T02:44:35;6.05;;;1.83;;
18838;SDS011;9548;56.920;14.804;2023-05-02T02:47:10;5.47;;;1.60;;
18838;SDS011;9548;56.920;14.804;2023-05-02T02:49:48;2.92;;;1.67;;
18838;SDS011;9548;56.920;14.804;2023-05-02T02:52:20;3.55;;;1.75;;
18838;SDS011;9548;56.920;14.804;2023-05-02T02:54:55;2.58;;;1.35;;
18838;SDS011;9548;56.920;14.804;2023-05-02T02:57:26;3.88;;;1.40;;
18838;SDS011;9548;56.920;14.804;2023-05-02T03:00:00;6.53;;;1.58;;
18838;SDS011;9548;56.920;14.804;2023-05-02T03:02:32;1.60;;;1.23;;
18838;SDS011;9548;56.920;14.804;2023-05-02T03:05:03;2.80;;;1.40;;
18838;SDS011;9548;56.920;14.804;2023-05-02T03:07:32;1.90;;;1.30;;
18838;SDS011;9548;56.920;14.804;2023-05-02T03:10:01;3.08;;;1.40;;
18838;SDS011;9548;56.920;14.804;2023-05-02T03:12:29;2.05;;;1.10;;
18838;SDS011;9548;56.920;14.804;2023-05-02T03:15:02;4.30;;;1.20;;
18838;SDS011;9548;56.920;14.804;2023-05-02T03:17:39;4.63;;;1.20;;
18838;SDS011;9548;56.920;14.804;2023-05-02T03:20:08;3.25;;;0.88;;
18838;SDS011;9548;56.920;14.804;2023-05-02T03:22:35;2.58;;;1.05;;
18838;SDS011;9548;56.920;14.804;2023-05-02T03:25:02;1.98;;;0.90;;
18838;SDS011;9548;56.920;14.804;2023-05-02T03:27:29;2.63;;;1.13;;
18838;SDS011;9548;56.920;14.804;2023-05-02T03:29:57;0.98;;;0.77;;
18838;SDS011;9548;56.920;14.804;2023-05-02T03:32:24;2.45;;;0.98;;
18838;SDS011;9548;56.920;14.804;2023-05-02T03:34:51;1.13;;;0.90;;
18838;SDS011;9548;56.920;14.804;2023-05-02T03:37:23;1.23;;;0.90;;
18838;SDS011;9548;56.920;14.804;2023-05-02T03:39:50;1.45;;;0.80;;
18838;SDS011;9548;56.920;14.804;2023-05-02T03:42:17;2.20;;;0.65;;
18838;SDS011;9548;56.920;14.804;2023-05-02T03:44:44;1.45;;;0.30;;
18838;SDS011;9548;56.920;14.804;2023-05-02T03:47:11;0.17;;;0.17;;
18838;SDS011;9548;56.920;14.804;2023-05-02T03:49:38;0.20;;;0.20;;
18838;SDS011;9548;56.920;14.804;2023-05-02T03:52:05;0.20;;;0.10;;
18838;SDS011;9548;56.920;14.804;2023-05-02T03:54:33;0.40;;;0.20;;
18838;SDS011;9548;56.920;14.804;2023-05-02T03:57:00;0.10;;;0.10;;
18838;SDS011;9548;56.920;14.804;2023-05-02T03:59:28;0.55;;;0.10;;
18838;SDS011;9548;56.920;14.804;2023-05-02T04:01:57;0.80;;;0.10;;
18838;SDS011;9548;56.920;14.804;2023-05-02T04:04:24;0.00;;;0.00;;
18838;SDS011;9548;56.920;14.804;2023-05-02T04:06:51;0.00;;;0.00;;
18838;SDS011;9548;56.920;14.804;2023-05-02T04:09:17;0.10;;;0.00;;
18838;SDS011;9548;56.920;14.804;2023-05-02T04:11:50;0.00;;;0.00;;
18838;SDS011;9548;56.920;14.804;2023-05-02T04:14:17;0.00;;;0.00;;
18838;SDS011;9548;56.920;14.804;2023-05-02T04:16:46;0.08;;;0.00;;
18838;SDS011;9548;56.920;14.804;2023-05-02T04:19:14;0.00;;;0.00;;
18838;SDS011;9548;56.920;14.804;2023-05-02T04:21:42;0.13;;;0.00;;
18838;SDS011;9548;56.920;14.804;2023-05-02T04:24:09;0.08;;;0.08;;
18838;SDS011;9548;56.920;14.804;2023-05-02T04:26:36;0.00;;;0.00;;
18838;SDS011;9548;56.920;14.804;2023-05-02T04:29:04;0.00;;;0.00;;
18838;SDS011;9548;56.920;14.804;2023-05-02T04:31:31;0.13;;;0.13;;
18838;SDS011;9548;56.920;14.804;2023-05-02T04:33:58;0.32;;;0.32;;
18838;SDS011;9548;56.920;14.804;2023-05-02T04:36:25;0.88;;;0.20;;
18838;SDS011;9548;56.920;14.804;2023-05-02T04:38:52;0.45;;;0.20;;
18838;SDS011;9548;56.920;14.804;2023-05-02T04:41:19;0.10;;;0.10;;
18838;SDS011;9548;56.920;14.804;2023-05-02T04:43:47;0.10;;;0.10;;
18838;SDS011;9548;56.920;14.804;2023-05-02T04:46:16;0.20;;;0.20;;
18838;SDS011;9548;56.920;14.804;2023-05-02T04:48:43;0.15;;;0.15;;
18838;SDS011;9548;56.920;14.804;2023-05-02T04:51:10;0.17;;;0.17;;
18838;SDS011;9548;56.920;14.804;2023-05-02T04:53:37;0.20;;;0.20;;
18838;SDS011;9548;56.920;14.804;2023-05-02T04:56:04;0.63;;;0.17;;
18838;SDS011;9548;56.920;14.804;2023-05-02T04:58:31;0.43;;;0.30;;
18838;SDS011;9548;56.920;14.804;2023-05-02T05:00:59;0.52;;;0.35;;
18838;SDS011;9548;56.920;14.804;2023-05-02T05:03:28;0.52;;;0.40;;
18838;SDS011;9548;56.920;14.804;2023-05-02T05:05:55;0.43;;;0.28;;
18838;SDS011;9548;56.920;14.804;2023-05-02T05:08:22;0.30;;;0.30;;
18838;SDS011;9548;56.920;14.804;2023-05-02T05:10:49;0.60;;;0.30;;
18838;SDS011;9548;56.920;14.804;2023-05-02T05:13:16;0.40;;;0.30;;
18838;SDS011;9548;56.920;14.804;2023-05-02T05:15:43;0.28;;;0.28;;
18838;SDS011;9548;56.920;14.804;2023-05-02T05:18:10;0.20;;;0.20;;
18838;SDS011;9548;56.920;14.804;2023-05-02T05:20:38;1.98;;;0.50;;
18838;SDS011;9548;56.920;14.804;2023-05-02T05:23:05;0.57;;;0.30;;
18838;SDS011;9548;56.920;14.804;2023-05-02T05:25:32;2.75;;;0.30;;
18838;SDS011;9548;56.920;14.804;2023-05-02T05:27:59;0.80;;;0.35;;
18838;SDS011;9548;56.920;14.804;2023-05-02T05:30:26;2.85;;;0.40;;
18838;SDS011;9548;56.920;14.804;2023-05-02T05:32:55;0.20;;;0.20;;
18838;SDS011;9548;56.920;14.804;2023-05-02T05:35:22;3.03;;;0.40;;
18838;SDS011;9548;56.920;14.804;2023-05-02T05:37:50;0.50;;;0.30;;
18838;SDS011;9548;56.920;14.804;2023-05-02T05:40:18;6.47;;;0.22;;
18838;SDS011;9548;56.920;14.804;2023-05-02T05:42:45;0.30;;;0.20;;
18838;SDS011;9548;56.920;14.804;2023-05-02T05:45:12;0.88;;;0.47;;
18838;SDS011;9548;56.920;14.804;2023-05-02T05:47:41;0.45;;;0.22;;
18838;SDS011;9548;56.920;14.804;2023-05-02T05:50:08;2.20;;;0.30;;
18838;SDS011;9548;56.920;14.804;2023-05-02T05:52:35;0.65;;;0.52;;
18838;SDS011;9548;56.920;14.804;2023-05-02T05:55:04;0.40;;;0.40;;
18838;SDS011;9548;56.920;14.804;2023-05-02T05:57:32;0.63;;;0.38;;
18838;SDS011;9548;56.920;14.804;2023-05-02T05:59:59;0.40;;;0.40;;
18838;SDS011;9548;56.920;14.804;2023-05-02T06:02:26;0.88;;;0.30;;
18838;SDS011;9548;56.920;14.804;2023-05-02T06:04:52;0.52;;;0.30;;
18838;SDS011;9548;56.920;14.804;2023-05-02T06:07:19;0.73;;;0.35;;
18838;SDS011;9548;56.920;14.804;2023-05-02T06:09:46;0.45;;;0.38;;
18838;SDS011;9548;56.920;14.804;2023-05-02T06:12:14;0.30;;;0.30;;
18838;SDS011;9548;56.920;14.804;2023-05-02T06:14:41;0.38;;;0.30;;
18838;SDS011;9548;56.920;14.804;2023-05-02T06:17:08;0.43;;;0.43;;
18838;SDS011;9548;56.920;14.804;2023-05-02T06:19:35;0.22;;;0.22;;
18838;SDS011;9548;56.920;14.804;2023-05-02T06:22:02;1.55;;;0.40;;
18838;SDS011;9548;56.920;14.804;2023-05-02T06:24:29;0.45;;;0.45;;
18838;SDS011;9548;56.920;14.804;2023-05-02T06:26:56;0.20;;;0.15;;
18838;SDS011;9548;56.920;14.804;2023-05-02T06:29:25;0.82;;;0.40;;
18838;SDS011;9548;56.920;14.804;2023-05-02T06:31:54;1.08;;;0.40;;
18838;SDS011;9548;56.920;14.804;2023-05-02T06:34:21;1.98;;;0.50;;
18838;SDS011;9548;56.920;14.804;2023-05-02T06:36:47;0.30;;;0.30;;
18838;SDS011;9548;56.920;14.804;2023-05-02T06:39:18;0.47;;;0.40;;
18838;SDS011;9548;56.920;14.804;2023-05-02T06:41:45;0.57;;;0.50;;
18838;SDS011;9548;56.920;14.804;2023-05-02T06:44:13;0.30;;;0.30;;
18838;SDS011;9548;56.920;14.804;2023-05-02T06:46:41;0.60;;;0.57;;
18838;SDS011;9548;56.920;14.804;2023-05-02T06:49:08;0.63;;;0.40;;
18838;SDS011;9548;56.920;14.804;2023-05-02T06:51:35;2.70;;;0.30;;
18838;SDS011;9548;56.920;14.804;2023-05-02T06:54:02;3.45;;;0.50;;
18838;SDS011;9548;56.920;14.804;2023-05-02T06:56:29;0.30;;;0.30;;
18838;SDS011;9548;56.920;14.804;2023-05-02T06:58:56;0.55;;;0.38;;
18838;SDS011;9548;56.920;14.804;2023-05-02T07:01:23;0.47;;;0.47;;
18838;SDS011;9548;56.920;14.804;2023-05-02T07:03:51;0.38;;;0.38;;
18838;SDS011;9548;56.920;14.804;2023-05-02T07:06:18;0.40;;;0.40;;
18838;SDS011;9548;56.920;14.804;2023-05-02T07:08:45;0.47;;;0.28;;
18838;SDS011;9548;56.920;14.804;2023-05-02T07:11:12;0.25;;;0.25;;
18838;SDS011;9548;56.920;14.804;2023-05-02T07:13:39;0.47;;;0.40;;
18838;SDS011;9548;56.920;14.804;2023-05-02T07:16:06;2.65;;;0.35;;
18838;SDS011;9548;56.920;14.804;2023-05-02T07:18:33;1.85;;;0.50;;
18838;SDS011;9548;56.920;14.804;2023-05-02T07:21:01;0.52;;;0.30;;
18838;SDS011;9548;56.920;14.804;2023-05-02T07:23:28;0.73;;;0.43;;
18838;SDS011;9548;56.920;14.804;2023-05-02T07:25:55;0.50;;;0.50;;
18838;SDS011;9548;56.920;14.804;2023-05-02T07:28:22;1.40;;;0.50;;
18838;SDS011;9548;56.920;14.804;2023-05-02T07:30:49;0.60;;;0.40;;
18838;SDS011;9548;56.920;14.804;2023-05-02T07:33:16;0.77;;;0.60;;
18838;SDS011;9548;56.920;14.804;2023-05-02T07:35:43;0.95;;;0.60;;
18838;SDS011;9548;56.920;14.804;2023-05-02T07:38:11;1.85;;;0.43;;
18838;SDS011;9548;56.920;14.804;2023-05-02T07:40:38;0.52;;;0.40;;
18838;SDS011;9548;56.920;14.804;2023-05-02T07:43:05;0.60;;;0.50;;
18838;SDS011;9548;56.920;14.804;2023-05-02T07:45:32;0.57;;;0.47;;
18838;SDS011;9548;56.920;14.804;2023-05-02T07:47:59;0.68;;;0.47;;
18838;SDS011;9548;56.920;14.804;2023-05-02T07:50:26;0.75;;;0.47;;
18838;SDS011;9548;56.920;14.804;2023-05-02T07:52:53;0.85;;;0.50;;
18838;SDS011;9548;56.920;14.804;2023-05-02T07:55:22;0.70;;;0.60;;
18838;SDS011;9548;56.920;14.804;2023-05-02T07:57:50;0.65;;;0.50;;
18838;SDS011;9548;56.920;14.804;2023-05-02T08:00:17;0.77;;;0.40;;
18838;SDS011;9548;56.920;14.804;2023-05-02T08:02:45;1.85;;;0.55;;
18838;SDS011;9548;56.920;14.804;2023-05-02T08:05:12;1.13;;;0.47;;
18838;SDS011;9548;56.920;14.804;2023-05-02T08:07:39;1.40;;;0.60;;
18838;SDS011;9548;56.920;14.804;2023-05-02T08:10:06;0.70;;;0.50;;
18838;SDS011;9548;56.920;14.804;2023-05-02T08:12:38;3.50;;;0.40;;
18838;SDS011;9548;56.920;14.804;2023-05-02T08:15:05;0.45;;;0.45;;
18838;SDS011;9548;56.920;14.804;2023-05-02T08:17:33;1.15;;;0.60;;
18838;SDS011;9548;56.920;14.804;2023-05-02T08:20:00;0.57;;;0.50;;
18838;SDS011;9548;56.920;14.804;2023-05-02T08:22:27;0.90;;;0.60;;
18838;SDS011;9548;56.920;14.804;2023-05-02T08:24:54;2.83;;;0.60;;
18838;SDS011;9548;56.920;14.804;2023-05-02T08:27:21;0.57;;;0.50;;
18838;SDS011;9548;56.920;14.804;2023-05-02T08:29:49;1.88;;;0.65;;
18838;SDS011;9548;56.920;14.804;2023-05-02T08:32:16;0.40;;;0.40;;
18838;SDS011;9548;56.920;14.804;2023-05-02T08:34:43;2.20;;;0.55;;
18838;SDS011;9548;56.920;14.804;2023-05-02T08:37:10;0.55;;;0.50;;
18838;SDS011;9548;56.920;14.804;2023-05-02T08:39:37;1.95;;;0.60;;
18838;SDS011;9548;56.920;14.804;2023-05-02T08:42:05;0.50;;;0.50;;
18838;SDS011;9548;56.920;14.804;2023-05-02T08:44:32;0.57;;;0.40;;
18838;SDS011;9548;56.920;14.804;2023-05-02T08:47:01;1.38;;;0.60;;
18838;SDS011;9548;56.920;14.804;2023-05-02T08:49:28;2.30;;;0.50;;
18838;SDS011;9548;56.920;14.804;2023-05-02T08:51:57;0.50;;;0.50;;
18838;SDS011;9548;56.920;14.804;2023-05-02T08:54:26;0.93;;;0.50;;
18838;SDS011;9548;56.920;14.804;2023-05-02T08:56:54;0.40;;;0.40;;
18838;SDS011;9548;56.920;14.804;2023-05-02T08:59:23;0.73;;;0.55;;
18838;SDS011;9548;56.920;14.804;2023-05-02T09:01:51;0.40;;;0.40;;
18838;SDS011;9548;56.920;14.804;2023-05-02T09:04:26;1.08;;;0.50;;
18838;SDS011;9548;56.920;14.804;2023-05-02T09:06:57;1.83;;;0.60;;
18838;SDS011;9548;56.920;14.804;2023-05-02T09:09:24;0.40;;;0.30;;
18838;SDS011;9548;56.920;14.804;2023-05-02T09:11:53;0.50;;;0.50;;
18838;SDS011;9548;56.920;14.804;2023-05-02T09:14:20;0.95;;;0.40;;
18838;SDS011;9548;56.920;14.804;2023-05-02T09:16:47;0.70;;;0.55;;
18838;SDS011;9548;56.920;14.804;2023-05-02T09:19:22;2.50;;;0.50;;
18838;SDS011;9548;56.920;14.804;2023-05-02T09:21:51;0.50;;;0.32;;
18838;SDS011;9548;56.920;14.804;2023-05-02T09:24:24;1.35;;;0.32;;
18838;SDS011;9548;56.920;14.804;2023-05-02T09:26:56;4.78;;;0.60;;
18838;SDS011;9548;56.920;14.804;2023-05-02T09:29:26;1.27;;;0.73;;
18838;SDS011;9548;56.920;14.804;2023-05-02T09:31:55;2.00;;;0.60;;
18838;SDS011;9548;56.920;14.804;2023-05-02T09:34:22;0.80;;;0.70;;
18838;SDS011;9548;56.920;14.804;2023-05-02T09:36:50;0.60;;;0.50;;
18838;SDS011;9548;56.920;14.804;2023-05-02T09:39:19;1.30;;;0.68;;
18838;SDS011;9548;56.920;14.804;2023-05-02T09:41:47;0.63;;;0.50;;
18838;SDS011;9548;56.920;14.804;2023-05-02T09:44:14;0.32;;;0.30;;
18838;SDS011;9548;56.920;14.804;2023-05-02T09:46:43;1.55;;;0.35;;
18838;SDS011;9548;56.920;14.804;2023-05-02T09:49:11;0.50;;;0.50;;
18838;SDS011;9548;56.920;14.804;2023-05-02T09:51:39;0.45;;;0.45;;
18838;SDS011;9548;56.920;14.804;2023-05-02T09:54:09;2.78;;;0.52;;
18838;SDS011;9548;56.920;14.804;2023-05-02T09:59:20;3.20;;;0.57;;
18838;SDS011;9548;56.920;14.804;2023-05-02T10:01:53;2.70;;;0.57;;
18838;SDS011;9548;56.920;14.804;2023-05-02T10:04:22;5.10;;;0.55;;
18838;SDS011;9548;56.920;14.804;2023-05-02T10:06:50;0.63;;;0.60;;
18838;SDS011;9548;56.920;14.804;2023-05-02T10:09:20;0.75;;;0.50;;
18838;SDS011;9548;56.920;14.804;2023-05-02T10:11:50;0.40;;;0.40;;
18838;SDS011;9548;56.920;14.804;2023-05-02T10:14:18;0.65;;;0.45;;
18838;SDS011;9548;56.920;14.804;2023-05-02T10:16:53;0.47;;;0.47;;
18838;SDS011;9548;56.920;14.804;2023-05-02T10:19:26;2.35;;;0.50;;
18838;SDS011;9548;56.920;14.804;2023-05-02T10:21:57;0.52;;;0.40;;
18838;SDS011;9548;56.920;14.804;2023-05-02T10:24:26;0.60;;;0.50;;
18838;SDS011;9548;56.920;14.804;2023-05-02T10:26:55;1.85;;;0.60;;
18838;SDS011;9548;56.920;14.804;2023-05-02T10:29:22;1.52;;;0.55;;
18838;SDS011;9548;56.920;14.804;2023-05-02T10:31:49;1.85;;;0.40;;
18838;SDS011;9548;56.920;14.804;2023-05-02T10:34:18;0.70;;;0.45;;
18838;SDS011;9548;56.920;14.804;2023-05-02T10:36:45;0.40;;;0.40;;
18838;SDS011;9548;56.920;14.804;2023-05-02T10:39:12;0.65;;;0.50;;
18838;SDS011;9548;56.920;14.804;2023-05-02T10:41:40;0.73;;;0.35;;
18838;SDS011;9548;56.920;14.804;2023-05-02T10:44:09;0.95;;;0.50;;
18838;SDS011;9548;56.920;14.804;2023-05-02T10:46:36;1.33;;;0.52;;
18838;SDS011;9548;56.920;14.804;2023-05-02T10:49:06;1.60;;;0.60;;
18838;SDS011;9548;56.920;14.804;2023-05-02T10:51:33;2.10;;;0.63;;
18838;SDS011;9548;56.920;14.804;2023-05-02T10:54:20;1.02;;;0.60;;
18838;SDS011;9548;56.920;14.804;2023-05-02T10:57:05;3.70;;;0.57;;
18838;SDS011;9548;56.920;14.804;2023-05-02T10:59:34;1.13;;;0.50;;
18838;SDS011;9548;56.920;14.804;2023-05-02T11:02:02;1.85;;;0.50;;
18838;SDS011;9548;56.920;14.804;2023-05-02T11:07:26;1.25;;;0.55;;
18838;SDS011;9548;56.920;14.804;2023-05-02T11:10:09;1.02;;;0.60;;
18838;SDS011;9548;56.920;14.804;2023-05-02T11:12:52;0.93;;;0.60;;
18838;SDS011;9548;56.920;14.804;2023-05-02T11:18:24;1.55;;;0.50;;
18838;SDS011;9548;56.920;14.804;2023-05-02T11:20:51;0.50;;;0.50;;
18838;SDS011;9548;56.920;14.804;2023-05-02T11:23:18;1.02;;;0.50;;
18838;SDS011;9548;56.920;14.804;2023-05-02T11:25:48;0.73;;;0.55;;
18838;SDS011;9548;56.920;14.804;2023-05-02T11:31:07;0.75;;;0.60;;
18838;SDS011;9548;56.920;14.804;2023-05-02T11:33:35;0.75;;;0.70;;
18838;SDS011;9548;56.920;14.804;2023-05-02T11:36:02;0.88;;;0.70;;
18838;SDS011;9548;56.920;14.804;2023-05-02T11:38:34;1.48;;;0.60;;
18838;SDS011;9548;56.920;14.804;2023-05-02T11:41:02;0.50;;;0.50;;
18838;SDS011;9548;56.920;14.804;2023-05-02T11:43:29;0.77;;;0.50;;
18838;SDS011;9548;56.920;14.804;2023-05-02T11:45:58;0.68;;;0.60;;
18838;SDS011;9548;56.920;14.804;2023-05-02T11:48:25;0.47;;;0.40;;
18838;SDS011;9548;56.920;14.804;2023-05-02T11:50:53;0.77;;;0.60;;
18838;SDS011;9548;56.920;14.804;2023-05-02T11:53:22;1.15;;;0.50;;
18838;SDS011;9548;56.920;14.804;2023-05-02T11:55:51;3.45;;;0.70;;
18838;SDS011;9548;56.920;14.804;2023-05-02T11:58:20;1.48;;;0.50;;
18838;SDS011;9548;56.920;14.804;2023-05-02T12:00:48;0.68;;;0.50;;
18838;SDS011;9548;56.920;14.804;2023-05-02T12:03:25;0.50;;;0.50;;
18838;SDS011;9548;56.920;14.804;2023-05-02T12:05:54;0.63;;;0.50;;
18838;SDS011;9548;56.920;14.804;2023-05-02T12:08:23;0.50;;;0.50;;
18838;SDS011;9548;56.920;14.804;2023-05-02T12:10:51;0.65;;;0.60;;
18838;SDS011;9548;56.920;14.804;2023-05-02T12:13:19;0.60;;;0.60;;
18838;SDS011;9548;56.920;14.804;2023-05-02T12:15:47;1.52;;;0.63;;
18838;SDS011;9548;56.920;14.804;2023-05-02T12:18:15;3.00;;;0.52;;
18838;SDS011;9548;56.920;14.804;2023-05-02T12:20:44;0.85;;;0.50;;
18838;SDS011;9548;56.920;14.804;2023-05-02T12:23:12;1.52;;;0.40;;
18838;SDS011;9548;56.920;14.804;2023-05-02T12:25:39;0.98;;;0.43;;
18838;SDS011;9548;56.920;14.804;2023-05-02T12:28:07;0.70;;;0.47;;
18838;SDS011;9548;56.920;14.804;2023-05-02T12:30:35;0.57;;;0.40;;
18838;SDS011;9548;56.920;14.804;2023-05-02T12:33:04;1.08;;;0.50;;
18838;SDS011;9548;56.920;14.804;2023-05-02T12:35:31;0.60;;;0.60;;
18838;SDS011;9548;56.920;14.804;2023-05-02T12:38:11;0.45;;;0.45;;
18838;SDS011;9548;56.920;14.804;2023-05-02T12:40:45;0.68;;;0.50;;
18838;SDS011;9548;56.920;14.804;2023-05-02T12:43:13;0.55;;;0.50;;
18838;SDS011;9548;56.920;14.804;2023-05-02T12:45:40;0.50;;;0.50;;
18838;SDS011;9548;56.920;14.804;2023-05-02T12:48:18;2.15;;;0.57;;
18838;SDS011;9548;56.920;14.804;2023-05-02T12:50:46;0.50;;;0.50;;
18838;SDS011;9548;56.920;14.804;2023-05-02T12:53:14;0.68;;;0.40;;
18838;SDS011;9548;56.920;14.804;2023-05-02T12:55:41;0.40;;;0.40;;
18838;SDS011;9548;56.920;14.804;2023-05-02T12:58:09;1.65;;;0.60;;
18838;SDS011;9548;56.920;14.804;2023-05-02T13:00:38;1.02;;;0.50;;
18838;SDS011;9548;56.920;14.804;2023-05-02T13:03:07;1.15;;;0.70;;
18838;SDS011;9548;56.920;14.804;2023-05-02T13:05:34;0.77;;;0.52;;
18838;SDS011;9548;56.920;14.804;2023-05-02T13:08:01;0.68;;;0.40;;
18838;SDS011;9548;56.920;14.804;2023-05-02T13:10:29;1.15;;;0.50;;
18838;SDS011;9548;56.920;14.804;2023-05-02T13:12:57;3.28;;;0.40;;
18838;SDS011;9548;56.920;14.804;2023-05-02T13:15:24;0.60;;;0.60;;
18838;SDS011;9548;56.920;14.804;2023-05-02T13:17:50;0.88;;;0.40;;
18838;SDS011;9548;56.920;14.804;2023-05-02T13:20:17;0.98;;;0.50;;
18838;SDS011;9548;56.920;14.804;2023-05-02T13:22:44;1.75;;;0.50;;
18838;SDS011;9548;56.920;14.804;2023-05-02T13:25:12;0.43;;;0.43;;
18838;SDS011;9548;56.920;14.804;2023-05-02T13:27:40;0.57;;;0.57;;
18838;SDS011;9548;56.920;14.804;2023-05-02T13:30:07;0.88;;;0.57;;
18838;SDS011;9548;56.920;14.804;2023-05-02T13:32:36;0.60;;;0.60;;
18838;SDS011;9548;56.920;14.804;2023-05-02T13:35:03;0.65;;;0.60;;
18838;SDS011;9548;56.920;14.804;2023-05-02T13:37:31;2.85;;;0.70;;
18838;SDS011;9548;56.920;14.804;2023-05-02T13:39:58;0.73;;;0.60;;
18838;SDS011;9548;56.920;14.804;2023-05-02T13:42:24;1.42;;;0.43;;
18838;SDS011;9548;56.920;14.804;2023-05-02T13:44:53;0.65;;;0.38;;
18838;SDS011;9548;56.920;14.804;2023-05-02T13:47:20;0.50;;;0.40;;
18838;SDS011;9548;56.920;14.804;2023-05-02T13:49:47;0.50;;;0.50;;
18838;SDS011;9548;56.920;14.804;2023-05-02T13:52:13;1.42;;;0.50;;
18838;SDS011;9548;56.920;14.804;2023-05-02T13:54:40;0.40;;;0.40;;
18838;SDS011;9548;56.920;14.804;2023-05-02T13:57:07;0.75;;;0.60;;
18838;SDS011;9548;56.920;14.804;2023-05-02T13:59:34;0.85;;;0.50;;
18838;SDS011;9548;56.920;14.804;2023-05-02T14:02:03;0.88;;;0.60;;
18838;SDS011;9548;56.920;14.804;2023-05-02T14:04:30;0.40;;;0.40;;
18838;SDS011;9548;56.920;14.804;2023-05-02T14:06:57;0.90;;;0.45;;
18838;SDS011;9548;56.920;14.804;2023-05-02T14:09:24;0.82;;;0.35;;
18838;SDS011;9548;56.920;14.804;2023-05-02T14:11:51;0.80;;;0.47;;
18838;SDS011;9548;56.920;14.804;2023-05-02T14:14:18;0.70;;;0.45;;
18838;SDS011;9548;56.920;14.804;2023-05-02T14:16:45;0.35;;;0.35;;
18838;SDS011;9548;56.920;14.804;2023-05-02T14:19:13;0.40;;;0.40;;
18838;SDS011;9548;56.920;14.804;2023-05-02T14:21:40;0.75;;;0.60;;
18838;SDS011;9548;56.920;14.804;2023-05-02T14:24:07;0.52;;;0.50;;
18838;SDS011;9548;56.920;14.804;2023-05-02T14:26:33;0.45;;;0.40;;
18838;SDS011;9548;56.920;14.804;2023-05-02T14:29:00;0.60;;;0.50;;
18838;SDS011;9548;56.920;14.804;2023-05-02T14:31:27;2.13;;;0.40;;
18838;SDS011;9548;56.920;14.804;2023-05-02T14:33:54;2.25;;;0.40;;
18838;SDS011;9548;56.920;14.804;2023-05-02T14:36:23;0.30;;;0.30;;
18838;SDS011;9548;56.920;14.804;2023-05-02T14:38:51;0.70;;;0.50;;
18838;SDS011;9548;56.920;14.804;2023-05-02T14:41:18;0.63;;;0.50;;
18838;SDS011;9548;56.920;14.804;2023-05-02T14:43:45;0.65;;;0.38;;
18838;SDS011;9548;56.920;14.804;2023-05-02T14:46:12;0.75;;;0.40;;
18838;SDS011;9548;56.920;14.804;2023-05-02T14:48:39;3.10;;;0.30;;
18838;SDS011;9548;56.920;14.804;2023-05-02T14:51:07;0.45;;;0.40;;
18838;SDS011;9548;56.920;14.804;2023-05-02T14:53:43;0.30;;;0.30;;
18838;SDS011;9548;56.920;14.804;2023-05-02T14:56:13;0.63;;;0.50;;
18838;SDS011;9548;56.920;14.804;2023-05-02T14:58:41;4.15;;;0.77;;
18838;SDS011;9548;56.920;14.804;2023-05-02T15:01:14;3.95;;;0.50;;
18838;SDS011;9548;56.920;14.804;2023-05-02T15:03:42;0.52;;;0.30;;
18838;SDS011;9548;56.920;14.804;2023-05-02T15:06:10;2.03;;;0.47;;
18838;SDS011;9548;56.920;14.804;2023-05-02T15:08:38;1.85;;;0.40;;